Scottsville, Kansas
Current Conditions -  °F | °C
As of 11:40 AM on Sunday 23 Nov 2014 (Local Time) from KCNK Reporting Station
Overcast Overcast  
Wind Chill: 39°   Ceiling: 2600
Heat Index: 47°   Visibility: 10mi
Dew Point: 38°   Wind: 25mph
Humidity: 71%   Direction: 350°N
Pressure: 29.52"   Gusts: 38mph
Location:  39.3832°N, 98.1405°W
Report Text: KCNK 231740Z AUTO 35022G33KT 10SM BKN026 OVC039 08/03 A2952 RMK AO2 PK WND 34034/1708 T00830033
Loading
Personal Weather Stations






























Interactive Weather Map New forecast layout! Learn more

10-Day Weather Forecast

Advertisements
Track Severe Weather on mobile